sensor_id;sensor_type;location;lat;lon;timestamp;P1;durP1;ratioP1;P2;durP2;ratioP2
22476;SDS011;65006;51.698;-0.292;2023-02-28T00:01:13;11.65;;;3.05;;
22476;SDS011;65006;51.698;-0.292;2023-02-28T00:03:39;6.82;;;2.30;;
22476;SDS011;65006;51.698;-0.292;2023-02-28T00:06:06;5.95;;;3.22;;
22476;SDS011;65006;51.698;-0.292;2023-02-28T00:08:32;6.05;;;2.47;;
22476;SDS011;65006;51.698;-0.292;2023-02-28T00:11:02;15.63;;;2.90;;
22476;SDS011;65006;51.698;-0.292;2023-02-28T00:13:28;7.13;;;2.40;;
22476;SDS011;65006;51.698;-0.292;2023-02-28T00:16:02;6.35;;;2.00;;
22476;SDS011;65006;51.698;-0.292;2023-02-28T00:18:28;10.40;;;2.90;;
22476;SDS011;65006;51.698;-0.292;2023-02-28T00:20:55;6.90;;;2.22;;
22476;SDS011;65006;51.698;-0.292;2023-02-28T00:23:21;7.10;;;2.50;;
22476;SDS011;65006;51.698;-0.292;2023-02-28T00:25:47;4.47;;;2.00;;
22476;SDS011;65006;51.698;-0.292;2023-02-28T00:28:13;6.35;;;2.60;;
22476;SDS011;65006;51.698;-0.292;2023-02-28T00:30:39;4.75;;;1.80;;
22476;SDS011;65006;51.698;-0.292;2023-02-28T00:33:05;6.35;;;2.47;;
22476;SDS011;65006;51.698;-0.292;2023-02-28T00:35:31;6.82;;;2.45;;
22476;SDS011;65006;51.698;-0.292;2023-02-28T00:37:57;8.30;;;2.63;;
22476;SDS011;65006;51.698;-0.292;2023-02-28T00:40:23;7.65;;;2.33;;
22476;SDS011;65006;51.698;-0.292;2023-02-28T00:42:49;5.00;;;2.30;;
22476;SDS011;65006;51.698;-0.292;2023-02-28T00:45:15;4.18;;;2.55;;
22476;SDS011;65006;51.698;-0.292;2023-02-28T00:47:41;8.50;;;2.40;;
22476;SDS011;65006;51.698;-0.292;2023-02-28T00:50:07;6.00;;;2.25;;
22476;SDS011;65006;51.698;-0.292;2023-02-28T00:52:34;5.57;;;2.55;;
22476;SDS011;65006;51.698;-0.292;2023-02-28T00:55:00;10.40;;;2.33;;
22476;SDS011;65006;51.698;-0.292;2023-02-28T00:57:26;6.10;;;2.53;;
22476;SDS011;65006;51.698;-0.292;2023-02-28T00:59:52;6.55;;;2.92;;
22476;SDS011;65006;51.698;-0.292;2023-02-28T01:02:22;4.50;;;2.20;;
22476;SDS011;65006;51.698;-0.292;2023-02-28T01:04:48;6.32;;;2.28;;
22476;SDS011;65006;51.698;-0.292;2023-02-28T01:07:14;6.07;;;2.67;;
22476;SDS011;65006;51.698;-0.292;2023-02-28T01:09:41;6.13;;;2.63;;
22476;SDS011;65006;51.698;-0.292;2023-02-28T01:12:07;12.13;;;2.78;;
22476;SDS011;65006;51.698;-0.292;2023-02-28T01:14:34;9.52;;;2.92;;
22476;SDS011;65006;51.698;-0.292;2023-02-28T01:17:00;6.47;;;2.42;;
22476;SDS011;65006;51.698;-0.292;2023-02-28T01:19:27;6.07;;;2.45;;
22476;SDS011;65006;51.698;-0.292;2023-02-28T01:21:53;7.68;;;3.17;;
22476;SDS011;65006;51.698;-0.292;2023-02-28T01:24:19;4.00;;;2.13;;
22476;SDS011;65006;51.698;-0.292;2023-02-28T01:26:45;5.57;;;2.45;;
22476;SDS011;65006;51.698;-0.292;2023-02-28T01:29:11;8.60;;;2.17;;
22476;SDS011;65006;51.698;-0.292;2023-02-28T01:31:37;4.80;;;2.38;;
22476;SDS011;65006;51.698;-0.292;2023-02-28T01:34:03;8.88;;;3.38;;
22476;SDS011;65006;51.698;-0.292;2023-02-28T01:36:29;15.70;;;3.38;;
22476;SDS011;65006;51.698;-0.292;2023-02-28T01:38:55;7.93;;;2.65;;
22476;SDS011;65006;51.698;-0.292;2023-02-28T01:41:23;11.52;;;3.00;;
22476;SDS011;65006;51.698;-0.292;2023-02-28T01:46:15;11.80;;;2.90;;
22476;SDS011;65006;51.698;-0.292;2023-02-28T01:48:46;11.00;;;2.92;;
22476;SDS011;65006;51.698;-0.292;2023-02-28T01:51:18;11.90;;;3.20;;
22476;SDS011;65006;51.698;-0.292;2023-02-28T01:53:47;8.65;;;2.90;;
22476;SDS011;65006;51.698;-0.292;2023-02-28T01:56:16;7.15;;;3.65;;
22476;SDS011;65006;51.698;-0.292;2023-02-28T01:58:46;12.07;;;3.45;;
22476;SDS011;65006;51.698;-0.292;2023-02-28T02:01:12;6.80;;;3.05;;
22476;SDS011;65006;51.698;-0.292;2023-02-28T02:03:46;10.30;;;3.72;;
22476;SDS011;65006;51.698;-0.292;2023-02-28T02:06:12;12.50;;;3.80;;
22476;SDS011;65006;51.698;-0.292;2023-02-28T02:08:39;6.32;;;3.08;;
22476;SDS011;65006;51.698;-0.292;2023-02-28T02:11:04;6.28;;;3.70;;
22476;SDS011;65006;51.698;-0.292;2023-02-28T02:18:46;11.40;;;3.58;;
22476;SDS011;65006;51.698;-0.292;2023-02-28T02:21:23;11.57;;;4.00;;
22476;SDS011;65006;51.698;-0.292;2023-02-28T02:26:55;8.85;;;4.18;;
22476;SDS011;65006;51.698;-0.292;2023-02-28T02:29:36;13.25;;;4.10;;
22476;SDS011;65006;51.698;-0.292;2023-02-28T02:37:36;9.85;;;3.97;;
22476;SDS011;65006;51.698;-0.292;2023-02-28T02:42:55;14.10;;;4.95;;
22476;SDS011;65006;51.698;-0.292;2023-02-28T02:45:39;17.30;;;5.25;;
22476;SDS011;65006;51.698;-0.292;2023-02-28T02:48:09;12.23;;;4.43;;
22476;SDS011;65006;51.698;-0.292;2023-02-28T02:50:37;23.88;;;5.30;;
22476;SDS011;65006;51.698;-0.292;2023-02-28T02:53:04;10.18;;;4.43;;
22476;SDS011;65006;51.698;-0.292;2023-02-28T02:55:32;21.83;;;5.28;;
22476;SDS011;65006;51.698;-0.292;2023-02-28T02:58:01;12.93;;;4.65;;
22476;SDS011;65006;51.698;-0.292;2023-02-28T03:00:33;11.52;;;4.20;;
22476;SDS011;65006;51.698;-0.292;2023-02-28T03:02:59;18.63;;;4.80;;
22476;SDS011;65006;51.698;-0.292;2023-02-28T03:05:32;13.65;;;5.55;;
22476;SDS011;65006;51.698;-0.292;2023-02-28T03:07:59;12.73;;;4.40;;
22476;SDS011;65006;51.698;-0.292;2023-02-28T03:10:33;12.30;;;4.63;;
22476;SDS011;65006;51.698;-0.292;2023-02-28T03:15:33;12.07;;;5.32;;
22476;SDS011;65006;51.698;-0.292;2023-02-28T03:18:08;11.77;;;4.90;;
22476;SDS011;65006;51.698;-0.292;2023-02-28T03:20:56;23.35;;;5.93;;
22476;SDS011;65006;51.698;-0.292;2023-02-28T03:23:32;10.60;;;5.18;;
22476;SDS011;65006;51.698;-0.292;2023-02-28T03:26:03;16.55;;;5.75;;
22476;SDS011;65006;51.698;-0.292;2023-02-28T03:31:11;11.88;;;4.70;;
22476;SDS011;65006;51.698;-0.292;2023-02-28T03:33:46;13.68;;;5.13;;
22476;SDS011;65006;51.698;-0.292;2023-02-28T03:36:19;14.38;;;4.80;;
22476;SDS011;65006;51.698;-0.292;2023-02-28T03:41:13;18.88;;;5.28;;
22476;SDS011;65006;51.698;-0.292;2023-02-28T03:43:41;10.95;;;5.07;;
22476;SDS011;65006;51.698;-0.292;2023-02-28T03:46:09;13.73;;;5.20;;
22476;SDS011;65006;51.698;-0.292;2023-02-28T03:48:43;14.52;;;4.70;;
22476;SDS011;65006;51.698;-0.292;2023-02-28T03:51:10;13.55;;;5.43;;
22476;SDS011;65006;51.698;-0.292;2023-02-28T03:53:39;14.35;;;4.72;;
22476;SDS011;65006;51.698;-0.292;2023-02-28T03:56:16;10.13;;;4.68;;
22476;SDS011;65006;51.698;-0.292;2023-02-28T04:01:16;17.23;;;4.28;;
22476;SDS011;65006;51.698;-0.292;2023-02-28T04:03:44;14.68;;;4.95;;
22476;SDS011;65006;51.698;-0.292;2023-02-28T04:06:18;9.65;;;4.40;;
22476;SDS011;65006;51.698;-0.292;2023-02-28T04:08:44;7.88;;;4.60;;
22476;SDS011;65006;51.698;-0.292;2023-02-28T04:13:55;9.93;;;4.30;;
22476;SDS011;65006;51.698;-0.292;2023-02-28T04:16:21;15.85;;;4.78;;
22476;SDS011;65006;51.698;-0.292;2023-02-28T04:18:47;12.65;;;4.32;;
22476;SDS011;65006;51.698;-0.292;2023-02-28T04:21:13;13.95;;;4.07;;
22476;SDS011;65006;51.698;-0.292;2023-02-28T04:23:39;11.63;;;5.07;;
22476;SDS011;65006;51.698;-0.292;2023-02-28T04:26:05;10.50;;;4.32;;
22476;SDS011;65006;51.698;-0.292;2023-02-28T04:28:32;12.43;;;4.57;;
22476;SDS011;65006;51.698;-0.292;2023-02-28T04:30:59;17.15;;;4.35;;
22476;SDS011;65006;51.698;-0.292;2023-02-28T04:33:26;8.90;;;3.17;;
22476;SDS011;65006;51.698;-0.292;2023-02-28T04:36:02;16.98;;;4.20;;
22476;SDS011;65006;51.698;-0.292;2023-02-28T04:38:29;8.30;;;3.97;;
22476;SDS011;65006;51.698;-0.292;2023-02-28T04:40:59;12.38;;;4.95;;
22476;SDS011;65006;51.698;-0.292;2023-02-28T04:43:26;11.48;;;3.95;;
22476;SDS011;65006;51.698;-0.292;2023-02-28T04:45:52;8.70;;;3.95;;
22476;SDS011;65006;51.698;-0.292;2023-02-28T04:48:25;8.88;;;4.18;;
22476;SDS011;65006;51.698;-0.292;2023-02-28T04:50:51;6.60;;;3.83;;
22476;SDS011;65006;51.698;-0.292;2023-02-28T04:53:17;9.85;;;4.35;;
22476;SDS011;65006;51.698;-0.292;2023-02-28T04:55:43;14.32;;;4.32;;
22476;SDS011;65006;51.698;-0.292;2023-02-28T04:58:10;19.25;;;4.05;;
22476;SDS011;65006;51.698;-0.292;2023-02-28T05:00:36;9.68;;;4.10;;
22476;SDS011;65006;51.698;-0.292;2023-02-28T05:03:02;24.27;;;5.07;;
22476;SDS011;65006;51.698;-0.292;2023-02-28T05:05:28;8.73;;;4.85;;
22476;SDS011;65006;51.698;-0.292;2023-02-28T05:07:54;9.00;;;4.75;;
22476;SDS011;65006;51.698;-0.292;2023-02-28T05:10:21;10.82;;;4.90;;
22476;SDS011;65006;51.698;-0.292;2023-02-28T05:12:47;12.63;;;5.20;;
22476;SDS011;65006;51.698;-0.292;2023-02-28T05:15:14;15.32;;;5.32;;
22476;SDS011;65006;51.698;-0.292;2023-02-28T05:17:40;21.75;;;5.68;;
22476;SDS011;65006;51.698;-0.292;2023-02-28T05:20:06;24.58;;;5.78;;
22476;SDS011;65006;51.698;-0.292;2023-02-28T05:22:35;16.90;;;5.90;;
22476;SDS011;65006;51.698;-0.292;2023-02-28T05:25:01;12.40;;;5.00;;
22476;SDS011;65006;51.698;-0.292;2023-02-28T05:27:28;11.48;;;5.28;;
22476;SDS011;65006;51.698;-0.292;2023-02-28T05:29:54;20.38;;;5.10;;
22476;SDS011;65006;51.698;-0.292;2023-02-28T05:32:20;14.35;;;6.00;;
22476;SDS011;65006;51.698;-0.292;2023-02-28T05:34:46;27.30;;;5.85;;
22476;SDS011;65006;51.698;-0.292;2023-02-28T05:37:12;23.85;;;6.13;;
22476;SDS011;65006;51.698;-0.292;2023-02-28T05:39:38;23.08;;;6.25;;
22476;SDS011;65006;51.698;-0.292;2023-02-28T05:42:04;31.45;;;5.78;;
22476;SDS011;65006;51.698;-0.292;2023-02-28T05:44:31;24.38;;;5.90;;
22476;SDS011;65006;51.698;-0.292;2023-02-28T05:46:57;101.10;;;8.27;;
22476;SDS011;65006;51.698;-0.292;2023-02-28T05:49:23;65.30;;;6.97;;
22476;SDS011;65006;51.698;-0.292;2023-02-28T05:51:49;33.80;;;5.50;;
22476;SDS011;65006;51.698;-0.292;2023-02-28T05:54:15;107.82;;;7.88;;
22476;SDS011;65006;51.698;-0.292;2023-02-28T05:56:41;40.20;;;6.30;;
22476;SDS011;65006;51.698;-0.292;2023-02-28T05:59:10;36.60;;;6.45;;
22476;SDS011;65006;51.698;-0.292;2023-02-28T06:01:38;16.40;;;5.38;;
22476;SDS011;65006;51.698;-0.292;2023-02-28T06:04:06;100.75;;;8.25;;
22476;SDS011;65006;51.698;-0.292;2023-02-28T06:06:32;114.95;;;10.20;;
22476;SDS011;65006;51.698;-0.292;2023-02-28T06:09:02;133.13;;;8.77;;
22476;SDS011;65006;51.698;-0.292;2023-02-28T06:13:55;17.20;;;5.88;;
22476;SDS011;65006;51.698;-0.292;2023-02-28T06:16:21;14.32;;;6.15;;
22476;SDS011;65006;51.698;-0.292;2023-02-28T06:18:47;12.70;;;5.65;;
22476;SDS011;65006;51.698;-0.292;2023-02-28T06:21:13;11.35;;;5.00;;
22476;SDS011;65006;51.698;-0.292;2023-02-28T06:23:39;10.30;;;4.97;;
22476;SDS011;65006;51.698;-0.292;2023-02-28T06:26:05;12.15;;;5.25;;
22476;SDS011;65006;51.698;-0.292;2023-02-28T06:28:31;9.55;;;4.88;;
22476;SDS011;65006;51.698;-0.292;2023-02-28T06:30:57;12.80;;;5.00;;
22476;SDS011;65006;51.698;-0.292;2023-02-28T06:33:23;10.48;;;4.80;;
22476;SDS011;65006;51.698;-0.292;2023-02-28T06:35:50;9.07;;;4.43;;
22476;SDS011;65006;51.698;-0.292;2023-02-28T06:38:16;9.45;;;4.63;;
22476;SDS011;65006;51.698;-0.292;2023-02-28T06:40:43;8.25;;;4.30;;
22476;SDS011;65006;51.698;-0.292;2023-02-28T06:43:09;10.82;;;5.22;;
22476;SDS011;65006;51.698;-0.292;2023-02-28T06:45:41;11.18;;;5.18;;
22476;SDS011;65006;51.698;-0.292;2023-02-28T06:48:08;13.20;;;5.05;;
22476;SDS011;65006;51.698;-0.292;2023-02-28T06:50:34;10.32;;;4.22;;
22476;SDS011;65006;51.698;-0.292;2023-02-28T06:53:00;11.80;;;5.05;;
22476;SDS011;65006;51.698;-0.292;2023-02-28T06:55:27;8.57;;;3.95;;
22476;SDS011;65006;51.698;-0.292;2023-02-28T06:57:53;13.18;;;4.65;;
22476;SDS011;65006;51.698;-0.292;2023-02-28T07:02:45;9.65;;;4.38;;
22476;SDS011;65006;51.698;-0.292;2023-02-28T07:05:12;7.25;;;4.50;;
22476;SDS011;65006;51.698;-0.292;2023-02-28T07:07:38;9.80;;;4.97;;
22476;SDS011;65006;51.698;-0.292;2023-02-28T07:10:09;8.55;;;4.57;;
22476;SDS011;65006;51.698;-0.292;2023-02-28T07:12:35;12.10;;;4.75;;
22476;SDS011;65006;51.698;-0.292;2023-02-28T07:15:02;7.53;;;3.83;;
22476;SDS011;65006;51.698;-0.292;2023-02-28T07:17:28;11.20;;;4.32;;
22476;SDS011;65006;51.698;-0.292;2023-02-28T07:19:54;12.07;;;4.55;;
22476;SDS011;65006;51.698;-0.292;2023-02-28T07:22:20;7.55;;;3.95;;
22476;SDS011;65006;51.698;-0.292;2023-02-28T07:24:46;9.48;;;4.45;;
22476;SDS011;65006;51.698;-0.292;2023-02-28T07:27:13;6.03;;;3.75;;
22476;SDS011;65006;51.698;-0.292;2023-02-28T07:29:49;9.07;;;3.83;;
22476;SDS011;65006;51.698;-0.292;2023-02-28T07:32:15;8.18;;;4.03;;
22476;SDS011;65006;51.698;-0.292;2023-02-28T07:34:41;7.40;;;3.42;;
22476;SDS011;65006;51.698;-0.292;2023-02-28T07:37:07;8.85;;;4.05;;
22476;SDS011;65006;51.698;-0.292;2023-02-28T07:39:34;6.57;;;4.00;;
22476;SDS011;65006;51.698;-0.292;2023-02-28T07:42:00;6.05;;;3.67;;
22476;SDS011;65006;51.698;-0.292;2023-02-28T07:44:28;6.70;;;3.50;;
22476;SDS011;65006;51.698;-0.292;2023-02-28T07:46:54;9.27;;;3.78;;
22476;SDS011;65006;51.698;-0.292;2023-02-28T07:49:20;8.05;;;3.83;;
22476;SDS011;65006;51.698;-0.292;2023-02-28T07:51:46;7.85;;;3.28;;
22476;SDS011;65006;51.698;-0.292;2023-02-28T07:54:13;8.73;;;3.58;;
22476;SDS011;65006;51.698;-0.292;2023-02-28T07:56:39;6.68;;;3.10;;
22476;SDS011;65006;51.698;-0.292;2023-02-28T07:59:04;9.05;;;3.05;;
22476;SDS011;65006;51.698;-0.292;2023-02-28T08:01:30;6.32;;;3.08;;
22476;SDS011;65006;51.698;-0.292;2023-02-28T08:03:57;6.78;;;3.38;;
22476;SDS011;65006;51.698;-0.292;2023-02-28T08:06:23;6.85;;;2.80;;
22476;SDS011;65006;51.698;-0.292;2023-02-28T08:08:50;5.78;;;3.13;;
22476;SDS011;65006;51.698;-0.292;2023-02-28T08:11:17;5.22;;;2.97;;
22476;SDS011;65006;51.698;-0.292;2023-02-28T08:13:43;4.47;;;2.45;;
22476;SDS011;65006;51.698;-0.292;2023-02-28T08:16:09;6.28;;;2.53;;
22476;SDS011;65006;51.698;-0.292;2023-02-28T08:18:35;4.93;;;2.78;;
22476;SDS011;65006;51.698;-0.292;2023-02-28T08:21:09;5.15;;;2.60;;
22476;SDS011;65006;51.698;-0.292;2023-02-28T08:23:35;7.35;;;2.55;;
22476;SDS011;65006;51.698;-0.292;2023-02-28T08:26:01;11.70;;;2.72;;
22476;SDS011;65006;51.698;-0.292;2023-02-28T08:28:29;4.43;;;2.30;;
22476;SDS011;65006;51.698;-0.292;2023-02-28T08:30:55;5.13;;;2.28;;
22476;SDS011;65006;51.698;-0.292;2023-02-28T08:33:22;5.18;;;2.35;;
22476;SDS011;65006;51.698;-0.292;2023-02-28T08:35:48;7.63;;;3.40;;
22476;SDS011;65006;51.698;-0.292;2023-02-28T08:38:15;6.15;;;2.88;;
22476;SDS011;65006;51.698;-0.292;2023-02-28T08:40:41;5.38;;;2.78;;
22476;SDS011;65006;51.698;-0.292;2023-02-28T08:43:07;5.28;;;2.78;;
22476;SDS011;65006;51.698;-0.292;2023-02-28T08:45:33;5.95;;;3.13;;
22476;SDS011;65006;51.698;-0.292;2023-02-28T08:47:59;3.75;;;2.15;;
22476;SDS011;65006;51.698;-0.292;2023-02-28T08:50:25;3.85;;;2.08;;
22476;SDS011;65006;51.698;-0.292;2023-02-28T08:52:51;3.83;;;1.92;;
22476;SDS011;65006;51.698;-0.292;2023-02-28T08:55:17;5.35;;;2.05;;
22476;SDS011;65006;51.698;-0.292;2023-02-28T08:57:43;6.63;;;2.08;;
22476;SDS011;65006;51.698;-0.292;2023-02-28T09:00:09;3.22;;;2.05;;
22476;SDS011;65006;51.698;-0.292;2023-02-28T09:02:38;4.68;;;2.03;;
22476;SDS011;65006;51.698;-0.292;2023-02-28T09:05:06;4.45;;;1.90;;
22476;SDS011;65006;51.698;-0.292;2023-02-28T09:07:32;5.00;;;1.70;;
22476;SDS011;65006;51.698;-0.292;2023-02-28T09:09:58;3.97;;;2.10;;
22476;SDS011;65006;51.698;-0.292;2023-02-28T09:12:25;4.78;;;2.33;;
22476;SDS011;65006;51.698;-0.292;2023-02-28T09:14:51;2.45;;;1.45;;
22476;SDS011;65006;51.698;-0.292;2023-02-28T09:17:17;3.50;;;1.98;;
22476;SDS011;65006;51.698;-0.292;2023-02-28T09:19:43;5.35;;;1.65;;
22476;SDS011;65006;51.698;-0.292;2023-02-28T09:22:10;4.47;;;2.05;;
22476;SDS011;65006;51.698;-0.292;2023-02-28T09:24:36;2.50;;;1.80;;
22476;SDS011;65006;51.698;-0.292;2023-02-28T09:27:02;4.53;;;1.98;;
22476;SDS011;65006;51.698;-0.292;2023-02-28T09:29:29;2.50;;;1.50;;
22476;SDS011;65006;51.698;-0.292;2023-02-28T09:31:55;3.60;;;1.48;;
22476;SDS011;65006;51.698;-0.292;2023-02-28T09:34:23;3.53;;;1.80;;
22476;SDS011;65006;51.698;-0.292;2023-02-28T09:36:49;2.08;;;1.40;;
22476;SDS011;65006;51.698;-0.292;2023-02-28T09:39:20;3.92;;;1.67;;
22476;SDS011;65006;51.698;-0.292;2023-02-28T09:41:47;3.28;;;1.88;;
22476;SDS011;65006;51.698;-0.292;2023-02-28T09:44:35;2.05;;;1.52;;
22476;SDS011;65006;51.698;-0.292;2023-02-28T09:47:44;6.17;;;1.80;;
22476;SDS011;65006;51.698;-0.292;2023-02-28T09:49:51;1.98;;;1.50;;
22476;SDS011;65006;51.698;-0.292;2023-02-28T09:52:18;2.85;;;1.33;;
22476;SDS011;65006;51.698;-0.292;2023-02-28T09:54:44;1.80;;;1.40;;
22476;SDS011;65006;51.698;-0.292;2023-02-28T09:57:14;2.35;;;1.30;;
22476;SDS011;65006;51.698;-0.292;2023-02-28T10:05:27;2.47;;;1.13;;
22476;SDS011;65006;51.698;-0.292;2023-02-28T10:10:49;4.38;;;1.40;;
22476;SDS011;65006;51.698;-0.292;2023-02-28T10:15:43;1.75;;;1.00;;
22476;SDS011;65006;51.698;-0.292;2023-02-28T10:18:11;1.45;;;1.17;;
22476;SDS011;65006;51.698;-0.292;2023-02-28T10:20:39;1.95;;;1.10;;
22476;SDS011;65006;51.698;-0.292;2023-02-28T10:23:11;3.88;;;1.55;;
22476;SDS011;65006;51.698;-0.292;2023-02-28T10:25:40;0.85;;;0.77;;
22476;SDS011;65006;51.698;-0.292;2023-02-28T10:28:10;2.55;;;0.90;;
22476;SDS011;65006;51.698;-0.292;2023-02-28T10:30:37;3.47;;;1.20;;
22476;SDS011;65006;51.698;-0.292;2023-02-28T10:33:04;4.40;;;1.25;;
22476;SDS011;65006;51.698;-0.292;2023-02-28T10:35:30;3.75;;;1.27;;
22476;SDS011;65006;51.698;-0.292;2023-02-28T10:37:59;1.90;;;1.42;;
22476;SDS011;65006;51.698;-0.292;2023-02-28T10:42:56;2.70;;;1.50;;
22476;SDS011;65006;51.698;-0.292;2023-02-28T10:45:23;3.60;;;1.10;;
22476;SDS011;65006;51.698;-0.292;2023-02-28T10:47:53;3.05;;;1.65;;
22476;SDS011;65006;51.698;-0.292;2023-02-28T10:50:30;2.35;;;1.67;;
22476;SDS011;65006;51.698;-0.292;2023-02-28T10:53:06;3.35;;;1.95;;
22476;SDS011;65006;51.698;-0.292;2023-02-28T10:55:34;4.07;;;2.33;;
22476;SDS011;65006;51.698;-0.292;2023-02-28T10:58:00;6.18;;;2.67;;
22476;SDS011;65006;51.698;-0.292;2023-02-28T11:00:31;5.75;;;3.10;;
22476;SDS011;65006;51.698;-0.292;2023-02-28T11:02:58;6.03;;;3.47;;
22476;SDS011;65006;51.698;-0.292;2023-02-28T11:07:51;9.55;;;4.25;;
22476;SDS011;65006;51.698;-0.292;2023-02-28T11:10:19;9.23;;;3.95;;
22476;SDS011;65006;51.698;-0.292;2023-02-28T11:12:46;7.65;;;4.22;;
22476;SDS011;65006;51.698;-0.292;2023-02-28T11:17:44;7.40;;;4.28;;
22476;SDS011;65006;51.698;-0.292;2023-02-28T11:20:23;9.02;;;4.25;;
22476;SDS011;65006;51.698;-0.292;2023-02-28T11:22:49;6.47;;;3.72;;
22476;SDS011;65006;51.698;-0.292;2023-02-28T11:25:21;6.70;;;3.25;;
22476;SDS011;65006;51.698;-0.292;2023-02-28T11:27:49;6.65;;;3.08;;
22476;SDS011;65006;51.698;-0.292;2023-02-28T11:32:57;6.05;;;3.17;;
22476;SDS011;65006;51.698;-0.292;2023-02-28T11:35:28;6.15;;;3.05;;
22476;SDS011;65006;51.698;-0.292;2023-02-28T11:37:55;5.75;;;3.42;;
22476;SDS011;65006;51.698;-0.292;2023-02-28T11:40:26;7.20;;;3.42;;
22476;SDS011;65006;51.698;-0.292;2023-02-28T11:43:08;5.80;;;2.95;;
22476;SDS011;65006;51.698;-0.292;2023-02-28T11:46:01;5.75;;;3.25;;
22476;SDS011;65006;51.698;-0.292;2023-02-28T11:51:19;7.03;;;3.38;;
22476;SDS011;65006;51.698;-0.292;2023-02-28T11:56:32;6.30;;;2.78;;
22476;SDS011;65006;51.698;-0.292;2023-02-28T11:59:22;5.60;;;2.72;;
22476;SDS011;65006;51.698;-0.292;2023-02-28T12:02:16;5.15;;;2.70;;
22476;SDS011;65006;51.698;-0.292;2023-02-28T12:07:21;4.05;;;1.83;;
22476;SDS011;65006;51.698;-0.292;2023-02-28T12:15:28;3.42;;;1.77;;
22476;SDS011;65006;51.698;-0.292;2023-02-28T12:25:21;1.92;;;0.90;;
22476;SDS011;65006;51.698;-0.292;2023-02-28T12:27:48;1.33;;;0.88;;
22476;SDS011;65006;51.698;-0.292;2023-02-28T12:30:25;0.63;;;0.52;;
22476;SDS011;65006;51.698;-0.292;2023-02-28T12:32:56;3.57;;;1.07;;
22476;SDS011;65006;51.698;-0.292;2023-02-28T12:35:28;2.15;;;0.90;;
22476;SDS011;65006;51.698;-0.292;2023-02-28T12:40:44;1.65;;;1.10;;
22476;SDS011;65006;51.698;-0.292;2023-02-28T12:43:12;2.47;;;1.35;;
22476;SDS011;65006;51.698;-0.292;2023-02-28T12:48:08;2.95;;;1.50;;
22476;SDS011;65006;51.698;-0.292;2023-02-28T12:50:35;3.10;;;1.70;;
22476;SDS011;65006;51.698;-0.292;2023-02-28T13:09:16;2.42;;;1.58;;
22476;SDS011;65006;51.698;-0.292;2023-02-28T13:11:43;3.70;;;1.23;;
22476;SDS011;65006;51.698;-0.292;2023-02-28T13:14:29;2.97;;;1.40;;
22476;SDS011;65006;51.698;-0.292;2023-02-28T13:19:44;1.88;;;0.80;;
22476;SDS011;65006;51.698;-0.292;2023-02-28T13:27:20;0.77;;;0.70;;
22476;SDS011;65006;51.698;-0.292;2023-02-28T13:29:50;0.88;;;0.60;;
22476;SDS011;65006;51.698;-0.292;2023-02-28T13:47:43;2.67;;;0.70;;
22476;SDS011;65006;51.698;-0.292;2023-02-28T14:08:42;2.50;;;0.60;;
22476;SDS011;65006;51.698;-0.292;2023-02-28T14:11:23;2.75;;;0.93;;
22476;SDS011;65006;51.698;-0.292;2023-02-28T14:13:50;2.42;;;0.52;;
22476;SDS011;65006;51.698;-0.292;2023-02-28T14:16:17;0.40;;;0.40;;
22476;SDS011;65006;51.698;-0.292;2023-02-28T14:19:09;2.83;;;0.47;;
22476;SDS011;65006;51.698;-0.292;2023-02-28T14:21:38;1.30;;;0.80;;
22476;SDS011;65006;51.698;-0.292;2023-02-28T14:24:28;6.47;;;0.50;;
22476;SDS011;65006;51.698;-0.292;2023-02-28T14:32:41;1.20;;;0.50;;
22476;SDS011;65006;51.698;-0.292;2023-02-28T14:37:37;2.00;;;0.80;;
22476;SDS011;65006;51.698;-0.292;2023-02-28T14:40:04;1.73;;;0.90;;
22476;SDS011;65006;51.698;-0.292;2023-02-28T14:42:31;2.20;;;0.90;;
22476;SDS011;65006;51.698;-0.292;2023-02-28T14:44:58;3.25;;;0.70;;
22476;SDS011;65006;51.698;-0.292;2023-02-28T14:47:26;1.85;;;0.50;;
22476;SDS011;65006;51.698;-0.292;2023-02-28T14:49:53;0.60;;;0.50;;
22476;SDS011;65006;51.698;-0.292;2023-02-28T14:52:21;0.30;;;0.30;;
22476;SDS011;65006;51.698;-0.292;2023-02-28T14:55:12;1.80;;;0.82;;
22476;SDS011;65006;51.698;-0.292;2023-02-28T15:00:04;1.10;;;0.70;;
22476;SDS011;65006;51.698;-0.292;2023-02-28T15:02:35;0.90;;;0.65;;
22476;SDS011;65006;51.698;-0.292;2023-02-28T15:07:45;2.15;;;0.85;;
22476;SDS011;65006;51.698;-0.292;2023-02-28T15:10:24;3.92;;;0.60;;
22476;SDS011;65006;51.698;-0.292;2023-02-28T15:12:52;0.88;;;0.57;;
22476;SDS011;65006;51.698;-0.292;2023-02-28T15:15:20;0.80;;;0.70;;
22476;SDS011;65006;51.698;-0.292;2023-02-28T15:17:49;1.80;;;0.57;;
22476;SDS011;65006;51.698;-0.292;2023-02-28T15:20:16;1.38;;;0.68;;
22476;SDS011;65006;51.698;-0.292;2023-02-28T15:22:43;2.85;;;0.50;;
22476;SDS011;65006;51.698;-0.292;2023-02-28T15:27:37;4.38;;;0.52;;
22476;SDS011;65006;51.698;-0.292;2023-02-28T15:30:08;1.95;;;0.35;;
22476;SDS011;65006;51.698;-0.292;2023-02-28T15:32:40;1.30;;;0.70;;
22476;SDS011;65006;51.698;-0.292;2023-02-28T15:37:50;0.60;;;0.60;;
22476;SDS011;65006;51.698;-0.292;2023-02-28T15:45:37;2.05;;;0.50;;
22476;SDS011;65006;51.698;-0.292;2023-02-28T15:48:09;0.25;;;0.25;;
22476;SDS011;65006;51.698;-0.292;2023-02-28T15:50:39;1.30;;;0.35;;
22476;SDS011;65006;51.698;-0.292;2023-02-28T15:53:05;3.20;;;0.55;;
22476;SDS011;65006;51.698;-0.292;2023-02-28T15:55:37;0.85;;;0.50;;
22476;SDS011;65006;51.698;-0.292;2023-02-28T15:58:04;1.02;;;0.52;;
22476;SDS011;65006;51.698;-0.292;2023-02-28T16:02:57;0.40;;;0.40;;
22476;SDS011;65006;51.698;-0.292;2023-02-28T16:07:53;1.95;;;0.50;;
22476;SDS011;65006;51.698;-0.292;2023-02-28T16:10:20;3.10;;;0.43;;
22476;SDS011;65006;51.698;-0.292;2023-02-28T16:12:48;7.93;;;0.50;;
22476;SDS011;65006;51.698;-0.292;2023-02-28T16:15:18;0.20;;;0.20;;
22476;SDS011;65006;51.698;-0.292;2023-02-28T16:17:45;1.60;;;0.40;;
22476;SDS011;65006;51.698;-0.292;2023-02-28T16:20:12;0.70;;;0.50;;
22476;SDS011;65006;51.698;-0.292;2023-02-28T16:22:38;0.68;;;0.30;;
22476;SDS011;65006;51.698;-0.292;2023-02-28T16:25:07;2.50;;;0.47;;
22476;SDS011;65006;51.698;-0.292;2023-02-28T16:27:35;1.95;;;0.30;;
22476;SDS011;65006;51.698;-0.292;2023-02-28T16:30:02;0.52;;;0.30;;
22476;SDS011;65006;51.698;-0.292;2023-02-28T16:32:29;1.02;;;0.50;;
22476;SDS011;65006;51.698;-0.292;2023-02-28T16:34:55;1.17;;;0.55;;
22476;SDS011;65006;51.698;-0.292;2023-02-28T16:37:21;0.20;;;0.20;;
22476;SDS011;65006;51.698;-0.292;2023-02-28T16:39:48;0.52;;;0.40;;
22476;SDS011;65006;51.698;-0.292;2023-02-28T16:42:18;0.85;;;0.40;;
22476;SDS011;65006;51.698;-0.292;2023-02-28T16:44:48;0.88;;;0.40;;
22476;SDS011;65006;51.698;-0.292;2023-02-28T16:47:14;0.30;;;0.30;;
22476;SDS011;65006;51.698;-0.292;2023-02-28T16:49:40;3.85;;;0.30;;
22476;SDS011;65006;51.698;-0.292;2023-02-28T16:52:07;1.42;;;0.30;;
22476;SDS011;65006;51.698;-0.292;2023-02-28T16:54:33;1.30;;;0.30;;
22476;SDS011;65006;51.698;-0.292;2023-02-28T16:56:59;0.65;;;0.35;;
22476;SDS011;65006;51.698;-0.292;2023-02-28T16:59:26;0.40;;;0.30;;
22476;SDS011;65006;51.698;-0.292;2023-02-28T17:01:54;1.40;;;0.43;;
22476;SDS011;65006;51.698;-0.292;2023-02-28T17:04:22;0.30;;;0.30;;
22476;SDS011;65006;51.698;-0.292;2023-02-28T17:06:48;0.30;;;0.30;;
22476;SDS011;65006;51.698;-0.292;2023-02-28T17:09:17;1.17;;;0.30;;
22476;SDS011;65006;51.698;-0.292;2023-02-28T17:11:44;0.47;;;0.40;;
22476;SDS011;65006;51.698;-0.292;2023-02-28T17:14:11;1.23;;;0.22;;
22476;SDS011;65006;51.698;-0.292;2023-02-28T17:16:37;0.28;;;0.25;;
22476;SDS011;65006;51.698;-0.292;2023-02-28T17:19:11;1.63;;;0.40;;
22476;SDS011;65006;51.698;-0.292;2023-02-28T17:21:37;0.85;;;0.50;;
22476;SDS011;65006;51.698;-0.292;2023-02-28T17:24:03;0.63;;;0.30;;
22476;SDS011;65006;51.698;-0.292;2023-02-28T17:26:30;0.77;;;0.43;;
22476;SDS011;65006;51.698;-0.292;2023-02-28T17:28:57;0.90;;;0.77;;